Time;durP1;ratioP1;P1;durP2;ratioP2;P2;SDS_P1;SDS_P2;PMS_P1;PMS_P2;Temp;Humidity;BMP_temperature;BMP_pressure;BME280_temperature;BME280_humidity;BME280_pressure;Samples;Min_cycle;Max_cycle;Signal;HPM_P1;HPM_P2
2023/04/07 00:01:03;;;;;;;25.40;10.50;;;10.70;99.90;;;;;;5072551;28;20188;-77
2023/04/07 00:03:29;;;;;;;17.40;9.90;;;10.70;99.90;;;;;;5072800;28;20199;-77
2023/04/07 00:05:55;;;;;;;20.13;10.27;;;10.60;99.90;;;;;;5072711;28;20198;-77
2023/04/07 00:08:20;;;;;;;20.10;9.57;;;10.70;99.90;;;;;;5073077;28;20213;-77
2023/04/07 00:10:46;;;;;;;15.93;9.83;;;10.80;99.90;;;;;;5071561;28;20217;-76
2023/04/07 00:13:12;;;;;;;16.67;9.63;;;10.60;99.90;;;;;;5072680;28;20174;-75
2023/04/07 00:15:37;;;;;;;21.23;11.03;;;10.40;99.90;;;;;;5071835;28;20178;-76
2023/04/07 00:18:03;;;;;;;16.07;9.70;;;10.40;99.90;;;;;;5071898;28;20746;-75
2023/04/07 00:20:29;;;;;;;19.10;11.10;;;10.20;99.90;;;;;;5073060;28;20191;-76
2023/04/07 00:22:54;;;;;;;17.53;11.20;;;10.30;99.90;;;;;;5072096;28;20171;-77
2023/04/07 00:25:20;;;;;;;18.83;10.83;;;10.30;99.90;;;;;;5072888;28;20151;-76
2023/04/07 00:27:46;;;;;;;15.03;10.33;;;10.30;99.90;;;;;;5072808;28;20170;-76
2023/04/07 00:30:11;;;;;;;17.20;10.13;;;10.10;99.90;;;;;;5071671;28;20193;-76
2023/04/07 00:32:37;;;;;;;19.00;10.27;;;10.10;99.90;;;;;;5071604;28;20171;-75
2023/04/07 00:35:03;;;;;;;14.77;9.30;;;10.10;99.90;;;;;;5072998;28;20615;-76
2023/04/07 00:37:28;;;;;;;15.77;10.43;;;10.00;99.90;;;;;;5073209;28;20639;-75
2023/04/07 00:39:56;;;;;;;14.93;10.13;;;10.10;99.90;;;;;;5072761;28;20175;-77
2023/04/07 00:42:22;;;;;;;19.87;10.43;;;10.30;99.90;;;;;;5072502;28;20528;-76
2023/04/07 00:44:47;;;;;;;14.13;9.90;;;10.30;99.90;;;;;;5072630;28;20163;-75
2023/04/07 00:47:14;;;;;;;17.33;10.50;;;10.40;99.90;;;;;;5073791;28;20565;-76
2023/04/07 00:49:40;;;;;;;18.60;10.47;;;10.50;99.90;;;;;;5076483;28;20492;-77
2023/04/07 00:52:08;;;;;;;16.27;9.67;;;10.30;99.90;;;;;;5076505;28;20167;-77
2023/04/07 00:54:35;;;;;;;16.87;9.90;;;10.20;99.90;;;;;;5076404;28;20516;-75
2023/04/07 00:57:00;;;;;;;18.27;10.70;;;10.30;99.90;;;;;;5076309;28;20174;-78
2023/04/07 00:59:28;;;;;;;20.70;10.43;;;10.20;99.90;;;;;;5075478;28;20171;-75
2023/04/07 01:02:21;;;;;;;20.20;10.23;;;10.30;99.90;;;;;;5075165;28;20234;-76
2023/04/07 01:04:47;;;;;;;16.03;9.70;;;10.40;99.90;;;;;;5076270;28;20614;-75
2023/04/07 01:07:38;;;;;;;18.07;10.00;;;10.50;99.90;;;;;;5076330;28;20298;-75
2023/04/07 01:10:07;;;;;;;15.37;9.47;;;10.40;99.90;;;;;;5074753;28;20170;-76
2023/04/07 01:12:51;;;;;;;17.00;10.00;;;10.20;99.90;;;;;;5076356;28;20752;-76
2023/04/07 01:15:20;;;;;;;15.00;10.17;;;10.10;99.90;;;;;;5076097;28;20160;-76
2023/04/07 01:17:58;;;;;;;20.70;11.20;;;10.10;99.90;;;;;;5075599;28;20302;-76
2023/04/07 01:20:29;;;;;;;19.20;10.23;;;10.20;99.90;;;;;;5076160;28;20201;-75
2023/04/07 01:22:58;;;;;;;23.67;12.30;;;10.20;99.90;;;;;;5076346;28;20689;-75
2023/04/07 01:25:45;;;;;;;21.47;10.60;;;10.20;99.90;;;;;;5075919;28;20176;-75
2023/04/07 01:28:21;;;;;;;20.30;9.90;;;10.30;99.90;;;;;;5056100;28;20203;-75
2023/04/07 01:30:48;;;;;;;18.00;11.07;;;10.20;99.90;;;;;;5054704;28;20164;-74
2023/04/07 01:33:14;;;;;;;18.80;10.67;;;10.30;99.90;;;;;;5055713;28;20172;-75
2023/04/07 01:35:42;;;;;;;17.20;10.60;;;10.30;99.90;;;;;;5056016;28;20164;-75
2023/04/07 01:38:10;;;;;;;34.20;18.83;;;10.40;99.90;;;;;;5055739;28;20506;-76
2023/04/07 01:40:38;;;;;;;62.00;26.10;;;10.30;99.90;;;;;;5058479;28;20179;-76
2023/04/07 01:43:05;;;;;;;23.70;11.53;;;10.10;99.90;;;;;;5075690;28;20151;-75
2023/04/07 01:45:33;;;;;;;23.17;12.83;;;10.10;99.90;;;;;;5075517;28;20658;-75
2023/04/07 01:47:59;;;;;;;23.73;13.30;;;10.20;99.90;;;;;;5075300;28;20223;-77
2023/04/07 01:50:26;;;;;;;23.37;11.00;;;10.30;99.90;;;;;;5075205;28;20554;-75
2023/04/07 01:52:52;;;;;;;23.17;11.77;;;10.40;99.90;;;;;;5075387;28;20653;-76
2023/04/07 01:55:20;;;;;;;26.40;12.63;;;10.40;99.90;;;;;;5075615;28;20210;-75
2023/04/07 01:57:45;;;;;;;23.90;11.37;;;10.40;99.90;;;;;;5073520;28;20715;-76
2023/04/07 02:00:11;;;;;;;25.80;12.13;;;10.30;99.90;;;;;;5075345;28;20235;-76
2023/04/07 02:02:43;;;;;;;26.43;12.23;;;10.50;99.90;;;;;;5074741;28;20254;-76
2023/04/07 02:05:13;;;;;;;19.80;11.57;;;10.50;99.90;;;;;;5075215;28;20210;-75
2023/04/07 02:08:00;;;;;;;22.77;13.13;;;10.50;99.90;;;;;;5074875;28;20248;-76
2023/04/07 02:10:28;;;;;;;25.07;12.17;;;10.40;99.90;;;;;;5075048;28;20166;-76
2023/04/07 02:12:55;;;;;;;24.53;12.13;;;10.50;99.90;;;;;;5073925;28;20185;-75
2023/04/07 02:15:23;;;;;;;25.47;12.00;;;10.60;99.90;;;;;;5073498;28;20163;-75
2023/04/07 02:17:51;;;;;;;21.07;11.37;;;10.30;99.90;;;;;;5075548;28;20571;-76
2023/04/07 02:20:18;;;;;;;23.13;11.90;;;10.20;99.90;;;;;;5073813;28;20239;-75
2023/04/07 02:22:45;;;;;;;21.03;11.13;;;10.40;99.90;;;;;;5074786;28;20187;-75
2023/04/07 02:25:26;;;;;;;21.00;11.07;;;10.50;99.90;;;;;;5074978;28;20169;-76
2023/04/07 02:27:54;;;;;;;22.03;11.97;;;10.40;99.90;;;;;;5074617;28;20159;-75
2023/04/07 02:30:19;;;;;;;19.03;10.20;;;10.40;99.90;;;;;;5073156;28;20176;-75
2023/04/07 02:32:46;;;;;;;22.83;10.97;;;10.30;99.90;;;;;;5074405;28;20171;-74
2023/04/07 02:35:14;;;;;;;17.77;10.70;;;10.20;99.90;;;;;;5074553;28;20540;-75
2023/04/07 02:37:39;;;;;;;18.33;10.23;;;10.10;99.90;;;;;;5074424;28;20203;-75
2023/04/07 02:40:06;;;;;;;16.63;9.50;;;10.00;99.90;;;;;;5074305;28;20167;-75
2023/04/07 02:42:31;;;;;;;17.60;9.70;;;10.00;99.90;;;;;;5072770;28;20168;-76
2023/04/07 02:44:57;;;;;;;17.43;10.03;;;9.90;99.90;;;;;;5073638;28;20167;-76
2023/04/07 02:47:23;;;;;;;16.27;9.13;;;9.90;99.90;;;;;;5074364;28;20202;-75
2023/04/07 02:49:49;;;;;;;15.20;9.23;;;10.10;99.90;;;;;;5073471;28;20502;-76
2023/04/07 02:52:16;;;;;;;13.20;8.93;;;10.20;99.90;;;;;;5074070;28;20209;-77
2023/04/07 02:54:42;;;;;;;16.87;9.10;;;10.00;99.90;;;;;;5073350;28;20181;-77
2023/04/07 02:57:08;;;;;;;16.90;9.07;;;9.90;99.90;;;;;;5074548;28;20148;-79
2023/04/07 02:59:33;;;;;;;17.37;9.03;;;10.00;99.90;;;;;;5072619;28;20174;-79
2023/04/07 03:01:59;;;;;;;21.70;10.13;;;10.00;99.90;;;;;;5073170;28;20187;-79
2023/04/07 03:04:25;;;;;;;15.53;9.20;;;10.00;99.90;;;;;;5074120;28;20167;-79
2023/04/07 03:06:50;;;;;;;23.00;10.90;;;10.00;99.90;;;;;;5072383;28;20171;-78
2023/04/07 03:09:16;;;;;;;25.73;11.17;;;10.00;99.90;;;;;;5072246;28;20218;-78
2023/04/07 03:11:42;;;;;;;32.73;12.47;;;10.00;99.90;;;;;;5072638;28;20217;-80
2023/04/07 03:14:08;;;;;;;27.83;11.60;;;9.80;99.90;;;;;;5072785;28;20535;-79
2023/04/07 03:16:33;;;;;;;32.10;13.33;;;9.80;99.90;;;;;;5072707;28;20184;-79
2023/04/07 03:18:59;;;;;;;39.40;12.97;;;9.90;99.90;;;;;;5072496;28;20175;-78
2023/04/07 03:21:27;;;;;;;41.47;13.57;;;10.00;99.90;;;;;;5072689;28;20661;-77
2023/04/07 03:23:53;;;;;;;36.93;14.33;;;10.10;99.90;;;;;;5074282;28;20616;-79
2023/04/07 03:26:19;;;;;;;38.50;13.07;;;10.10;99.90;;;;;;5072726;28;20176;-80
2023/04/07 03:28:44;;;;;;;33.50;13.07;;;10.00;99.90;;;;;;5073653;28;20608;-77
2023/04/07 03:31:10;;;;;;;33.50;12.53;;;10.00;99.90;;;;;;5072235;28;20179;-78
2023/04/07 03:33:36;;;;;;;40.83;14.23;;;10.10;99.90;;;;;;5072268;28;20312;-78
2023/04/07 03:36:01;;;;;;;35.60;13.33;;;10.10;99.90;;;;;;5073346;28;20179;-79
2023/04/07 03:38:27;;;;;;;32.77;12.20;;;10.00;99.90;;;;;;5072063;28;20265;-79
2023/04/07 03:40:55;;;;;;;35.17;13.00;;;9.90;99.90;;;;;;5072103;28;20749;-79
2023/04/07 03:43:21;;;;;;;36.97;12.87;;;10.00;99.90;;;;;;5073240;28;20680;-78
2023/04/07 03:45:47;;;;;;;29.70;12.20;;;10.00;99.90;;;;;;5071958;28;20609;-78
2023/04/07 03:48:13;;;;;;;31.47;12.20;;;10.10;99.90;;;;;;5073171;28;20237;-77
2023/04/07 03:50:39;;;;;;;36.60;13.50;;;10.10;99.90;;;;;;5073738;28;20669;-80
2023/04/07 03:53:06;;;;;;;35.33;13.97;;;10.10;99.90;;;;;;5073024;28;20255;-77
2023/04/07 03:55:32;;;;;;;34.27;12.47;;;10.00;99.90;;;;;;5072243;28;20232;-76
2023/04/07 03:57:58;;;;;;;28.23;11.80;;;10.00;99.90;;;;;;5071905;28;20173;-77
2023/04/07 04:00:35;;;;;;;33.93;12.33;;;9.90;99.90;;;;;;5072371;28;20277;-80
2023/04/07 04:03:01;;;;;;;27.33;11.70;;;9.90;99.90;;;;;;5072513;28;20170;-79
2023/04/07 04:05:27;;;;;;;26.17;11.30;;;10.00;99.90;;;;;;5073863;28;20163;-78
2023/04/07 04:07:53;;;;;;;29.23;11.87;;;10.00;99.90;;;;;;5072055;28;20380;-80
2023/04/07 04:10:19;;;;;;;29.80;12.53;;;9.90;99.90;;;;;;5071659;28;20206;-78
2023/04/07 04:12:46;;;;;;;33.43;11.63;;;9.80;99.90;;;;;;5073057;28;20665;-78
2023/04/07 04:15:13;;;;;;;32.07;11.77;;;9.70;99.90;;;;;;5071777;28;20167;-78
2023/04/07 04:17:38;;;;;;;28.43;11.83;;;9.60;99.90;;;;;;5072116;28;20262;-79
2023/04/07 04:20:05;;;;;;;31.50;12.80;;;9.60;99.90;;;;;;5071914;28;20692;-78
2023/04/07 04:22:30;;;;;;;33.70;13.90;;;9.70;99.90;;;;;;5071155;28;20287;-79
2023/04/07 04:24:56;;;;;;;35.07;13.77;;;9.70;99.90;;;;;;5071744;28;20258;-78
2023/04/07 04:27:22;;;;;;;31.20;11.83;;;9.80;99.90;;;;;;5072627;28;20167;-77
2023/04/07 04:29:47;;;;;;;32.57;13.27;;;9.80;99.90;;;;;;5071297;28;20179;-76
2023/04/07 04:32:13;;;;;;;32.37;12.93;;;9.90;99.90;;;;;;5072369;28;20536;-76
2023/04/07 04:34:40;;;;;;;32.63;13.33;;;9.90;99.90;;;;;;5070979;28;20189;-77
2023/04/07 04:37:07;;;;;;;37.00;15.33;;;10.10;99.90;;;;;;5070867;28;20186;-78
2023/04/07 04:39:32;;;;;;;38.77;14.23;;;10.00;99.90;;;;;;5071065;28;20171;-78
2023/04/07 04:41:58;;;;;;;41.77;15.27;;;10.00;99.90;;;;;;5071343;28;20199;-78
2023/04/07 04:44:24;;;;;;;40.63;16.53;;;10.10;99.90;;;;;;5071795;28;20167;-78
2023/04/07 04:46:51;;;;;;;37.50;14.93;;;10.10;99.90;;;;;;5072250;28;20259;-79
2023/04/07 04:49:17;;;;;;;40.97;14.67;;;10.10;99.90;;;;;;5071940;28;20704;-78
2023/04/07 04:51:43;;;;;;;38.47;15.03;;;10.00;99.90;;;;;;5071774;28;20686;-77
2023/04/07 04:54:10;;;;;;;42.63;16.30;;;10.10;99.90;;;;;;5072242;28;20266;-79
2023/04/07 04:56:39;;;;;;;37.03;14.57;;;10.00;99.90;;;;;;5072005;28;20171;-78
2023/04/07 04:59:05;;;;;;;37.07;15.87;;;9.90;99.90;;;;;;5071351;28;20267;-78
2023/04/07 05:01:31;;;;;;;34.57;14.60;;;9.90;99.90;;;;;;5071115;28;20195;-77
2023/04/07 05:03:56;;;;;;;36.43;15.67;;;10.10;99.90;;;;;;5071501;28;20167;-78
2023/04/07 05:06:22;;;;;;;40.10;15.47;;;10.00;99.90;;;;;;5071797;28;20178;-78
2023/04/07 05:08:48;;;;;;;39.53;16.07;;;9.90;99.90;;;;;;5072800;28;20213;-78
2023/04/07 05:11:13;;;;;;;36.37;15.57;;;10.00;99.90;;;;;;5072201;28;20174;-79
2023/04/07 05:13:39;;;;;;;35.27;15.57;;;9.90;99.90;;;;;;5071306;28;20167;-78
2023/04/07 05:16:05;;;;;;;33.63;15.07;;;9.70;99.90;;;;;;5071096;28;20663;-78
2023/04/07 05:18:31;;;;;;;40.20;16.93;;;9.70;99.90;;;;;;5072593;28;20259;-80
2023/04/07 05:20:58;;;;;;;35.10;14.83;;;9.60;99.90;;;;;;5071434;28;20634;-78
2023/04/07 05:23:23;;;;;;;40.47;15.53;;;9.70;99.90;;;;;;5071274;28;20167;-78
2023/04/07 05:25:49;;;;;;;34.33;15.87;;;9.60;99.90;;;;;;5072202;28;20628;-79
2023/04/07 05:28:15;;;;;;;34.90;16.27;;;9.60;99.90;;;;;;5072911;28;20169;-79
2023/04/07 05:30:41;;;;;;;35.20;15.80;;;9.60;99.90;;;;;;5071813;28;20167;-78
2023/04/07 05:33:06;;;;;;;40.70;17.03;;;9.50;99.90;;;;;;5071640;28;20202;-79
2023/04/07 05:35:32;;;;;;;36.20;16.13;;;9.60;99.90;;;;;;5058831;28;20527;-78
2023/04/07 05:37:58;;;;;;;39.60;16.90;;;9.60;99.90;;;;;;5074866;28;20225;-79
2023/04/07 05:40:24;;;;;;;43.67;16.17;;;9.50;99.90;;;;;;5074688;28;20199;-77
2023/04/07 05:42:50;;;;;;;37.87;17.07;;;9.50;99.90;;;;;;5076090;28;20164;-78
2023/04/07 05:45:16;;;;;;;35.57;16.70;;;9.50;99.90;;;;;;5074934;28;20167;-79
2023/04/07 05:47:43;;;;;;;41.33;16.47;;;9.40;99.90;;;;;;5074833;28;20167;-79
2023/04/07 05:50:11;;;;;;;36.30;16.20;;;9.40;99.90;;;;;;5074705;28;20171;-78
2023/04/07 05:52:36;;;;;;;37.30;17.47;;;9.30;99.90;;;;;;5075050;28;20559;-79
2023/04/07 05:55:02;;;;;;;34.13;15.13;;;9.30;99.90;;;;;;5074622;28;20171;-78
2023/04/07 05:57:28;;;;;;;41.03;17.03;;;9.40;99.90;;;;;;5074833;28;20159;-76
2023/04/07 05:59:59;;;;;;;37.50;16.33;;;9.30;99.90;;;;;;5075924;28;20155;-76
2023/04/07 06:02:31;;;;;;;37.17;16.30;;;9.40;99.90;;;;;;5074394;28;20269;-76
2023/04/07 06:05:01;;;;;;;40.77;16.23;;;9.40;99.90;;;;;;5074563;28;20197;-76
2023/04/07 06:07:31;;;;;;;32.37;15.33;;;9.50;99.90;;;;;;5073804;28;20159;-76
2023/04/07 06:10:01;;;;;;;33.97;15.97;;;9.50;99.90;;;;;;5075296;28;20170;-76
2023/04/07 06:12:27;;;;;;;34.80;15.37;;;9.60;99.90;;;;;;5074508;28;20250;-76
2023/04/07 06:14:54;;;;;;;31.30;15.10;;;9.50;99.90;;;;;;5075896;28;20210;-77
2023/04/07 06:17:21;;;;;;;30.77;14.97;;;9.70;99.90;;;;;;5075151;28;20211;-76
2023/04/07 06:19:54;;;;;;;35.30;15.03;;;9.70;99.90;;;;;;5075645;28;20209;-76
2023/04/07 06:22:22;;;;;;;29.97;14.67;;;9.70;99.90;;;;;;5074406;28;20282;-76
2023/04/07 06:24:51;;;;;;;34.07;14.53;;;9.70;99.90;;;;;;5073715;28;20163;-77
2023/04/07 06:27:20;;;;;;;39.70;15.13;;;9.70;99.90;;;;;;5073266;28;20237;-76
2023/04/07 06:29:47;;;;;;;33.77;15.03;;;9.80;99.90;;;;;;5074348;28;20236;-76
2023/04/07 06:32:12;;;;;;;32.87;15.93;;;9.70;99.90;;;;;;5074022;28;20166;-76
2023/04/07 06:34:49;;;;;;;33.73;16.20;;;9.70;99.90;;;;;;5074177;28;20163;-77
2023/04/07 06:37:18;;;;;;;31.43;16.10;;;9.70;99.90;;;;;;5073651;28;20531;-77
2023/04/07 06:39:45;;;;;;;27.70;14.17;;;9.60;99.90;;;;;;5073318;28;20174;-74
2023/04/07 06:42:15;;;;;;;31.40;14.40;;;9.70;99.90;;;;;;5073616;28;20279;-73
2023/04/07 06:44:50;;;;;;;31.33;15.83;;;9.90;99.90;;;;;;5073582;28;20178;-76
2023/04/07 06:47:23;;;;;;;25.50;14.07;;;9.90;99.90;;;;;;5074728;28;20159;-75
2023/04/07 06:49:49;;;;;;;31.90;15.80;;;10.00;99.90;;;;;;5074066;28;20170;-76
2023/04/07 06:52:21;;;;;;;28.20;13.57;;;10.10;99.90;;;;;;5074970;28;20206;-75
2023/04/07 06:54:47;;;;;;;27.03;13.83;;;10.20;99.90;;;;;;5071379;28;20172;-76
2023/04/07 06:57:12;;;;;;;21.37;10.40;;;10.20;99.90;;;;;;5067194;28;20178;-74
2023/04/07 06:59:41;;;;;;;23.47;11.60;;;10.20;99.90;;;;;;5072334;28;20518;-75
2023/04/07 07:02:09;;;;;;;21.93;11.30;;;10.10;99.90;;;;;;5070994;28;20212;-75
2023/04/07 07:04:38;;;;;;;16.30;10.60;;;10.10;99.90;;;;;;5069785;28;20183;-77
2023/04/07 07:07:05;;;;;;;17.50;10.10;;;10.00;99.90;;;;;;5073244;28;20188;-76
2023/04/07 07:09:34;;;;;;;16.67;8.77;;;10.10;99.90;;;;;;5074134;28;20167;-75
2023/04/07 07:12:02;;;;;;;16.37;9.20;;;10.00;99.90;;;;;;5057785;28;20283;-75
2023/04/07 07:14:30;;;;;;;18.07;9.50;;;10.10;99.90;;;;;;5072900;28;20168;-75
2023/04/07 07:17:03;;;;;;;19.27;9.67;;;10.20;99.90;;;;;;5073589;28;20698;-77
2023/04/07 07:19:34;;;;;;;18.80;9.70;;;10.40;99.90;;;;;;5072998;28;20176;-76
2023/04/07 07:22:03;;;;;;;14.57;8.30;;;10.50;99.90;;;;;;5072918;28;20547;-75
2023/04/07 07:24:35;;;;;;;14.20;9.10;;;10.60;99.90;;;;;;5074351;28;20171;-75
2023/04/07 07:27:02;;;;;;;16.07;8.10;;;10.80;99.90;;;;;;5072241;28;20186;-76
2023/04/07 07:29:31;;;;;;;16.27;8.53;;;10.80;99.90;;;;;;5073038;28;20179;-75
2023/04/07 07:31:59;;;;;;;16.33;8.00;;;10.70;99.90;;;;;;5072498;28;20640;-75
2023/04/07 07:34:29;;;;;;;16.57;8.13;;;10.80;99.90;;;;;;5072464;28;20213;-75
2023/04/07 07:36:56;;;;;;;13.77;8.23;;;11.00;99.90;;;;;;5071846;28;20182;-75
2023/04/07 07:39:28;;;;;;;14.13;7.57;;;11.10;99.90;;;;;;5073746;28;20181;-75
2023/04/07 07:41:54;;;;;;;16.43;7.53;;;11.30;99.90;;;;;;5072198;28;20256;-74
2023/04/07 07:44:22;;;;;;;12.00;6.87;;;11.20;99.90;;;;;;5072376;28;20177;-74
2023/04/07 07:46:49;;;;;;;14.53;6.90;;;11.20;99.90;;;;;;5071653;28;20210;-76
2023/04/07 07:49:20;;;;;;;12.80;7.30;;;11.10;99.90;;;;;;5071978;28;20190;-74
2023/04/07 07:51:58;;;;;;;17.53;7.53;;;11.00;99.90;;;;;;5072297;28;20175;-74
2023/04/07 07:54:30;;;;;;;14.57;7.17;;;10.60;99.90;;;;;;5072350;28;20171;-75
2023/04/07 07:57:03;;;;;;;13.87;7.30;;;10.40;99.90;;;;;;5072827;28;20179;-76
2023/04/07 07:59:29;;;;;;;12.57;7.20;;;10.40;99.90;;;;;;5073939;28;20934;-76
2023/04/07 08:01:55;;;;;;;12.30;7.00;;;10.40;99.90;;;;;;5071826;28;20198;-74
2023/04/07 08:04:25;;;;;;;11.30;6.77;;;10.50;99.90;;;;;;5071854;28;20521;-75
2023/04/07 08:06:54;;;;;;;9.60;6.93;;;10.50;99.90;;;;;;5072656;28;20616;-77
2023/04/07 08:09:37;;;;;;;14.93;6.83;;;10.50;99.90;;;;;;5072345;28;20176;-75
2023/04/07 08:12:14;;;;;;;13.60;5.60;;;10.40;99.90;;;;;;5073257;28;20171;-76
2023/04/07 08:14:43;;;;;;;15.23;6.00;;;10.40;99.90;;;;;;5073519;28;20182;-75
2023/04/07 08:17:14;;;;;;;9.47;6.17;;;10.30;99.90;;;;;;5071380;28;20187;-77
2023/04/07 08:20:04;;;;;;;12.27;5.83;;;10.20;99.90;;;;;;5072996;28;20179;-75
2023/04/07 08:22:33;;;;;;;11.93;5.70;;;10.30;99.90;;;;;;5073035;28;20187;-76
2023/04/07 08:25:05;;;;;;;10.47;5.67;;;10.50;99.90;;;;;;5072847;28;20183;-76
2023/04/07 08:27:37;;;;;;;6.77;5.57;;;10.60;99.90;;;;;;5072092;28;20628;-75
2023/04/07 08:30:07;;;;;;;11.27;5.27;;;10.80;99.90;;;;;;5071517;28;20182;-75
2023/04/07 08:33:07;;;;;;;8.53;4.77;;;10.90;99.90;;;;;;5073268;28;20171;-75
2023/04/07 08:35:34;;;;;;;7.57;4.13;;;10.90;99.90;;;;;;5070417;28;20171;-76
2023/04/07 08:38:07;;;;;;;11.60;4.67;;;11.00;99.90;;;;;;5071950;28;20179;-74
2023/04/07 08:40:33;;;;;;;7.47;4.00;;;11.00;99.90;;;;;;5072888;28;20234;-75
2023/04/07 08:43:08;;;;;;;6.13;4.17;;;10.80;99.90;;;;;;5073128;28;20231;-74
2023/04/07 08:45:39;;;;;;;10.20;4.73;;;10.80;99.90;;;;;;5072892;28;20177;-75
2023/04/07 08:48:16;;;;;;;11.57;4.50;;;10.70;99.90;;;;;;5072233;28;20262;-74
2023/04/07 08:50:51;;;;;;;11.47;6.30;;;10.90;99.90;;;;;;5071900;28;20640;-75
2023/04/07 08:53:22;;;;;;;12.23;5.00;;;10.90;99.90;;;;;;5071885;28;20228;-75
2023/04/07 08:55:51;;;;;;;5.53;4.00;;;10.90;99.90;;;;;;5071058;28;20175;-76
2023/04/07 08:58:23;;;;;;;7.93;4.17;;;11.10;99.90;;;;;;5072867;28;20184;-74
2023/04/07 09:00:58;;;;;;;8.10;2.77;;;11.30;99.90;;;;;;5071302;28;20609;-75
2023/04/07 09:03:25;;;;;;;4.57;2.87;;;11.40;99.90;;;;;;5071097;28;20170;-75
2023/04/07 09:06:01;;;;;;;6.67;2.90;;;11.30;99.90;;;;;;5072137;28;20194;-74
2023/04/07 09:08:34;;;;;;;4.77;2.53;;;11.40;99.90;;;;;;5072707;28;20215;-74
2023/04/07 09:11:14;;;;;;;6.23;2.73;;;11.40;99.90;;;;;;5072703;28;20572;-77
2023/04/07 09:13:43;;;;;;;3.87;2.30;;;11.50;99.90;;;;;;5076600;28;20626;-75
2023/04/07 09:16:09;;;;;;;6.37;2.80;;;11.40;99.90;;;;;;5070967;28;20180;-74
2023/04/07 09:18:36;;;;;;;4.67;2.03;;;11.60;99.90;;;;;;5074518;28;20191;-75
2023/04/07 09:21:06;;;;;;;2.50;1.60;;;11.90;99.90;;;;;;5074561;28;20229;-76
2023/04/07 09:23:34;;;;;;;3.43;1.87;;;12.00;99.90;;;;;;5074233;28;20261;-75
2023/04/07 09:26:18;;;;;;;3.47;1.90;;;12.20;99.90;;;;;;5060191;28;20774;-76
2023/04/07 09:28:47;;;;;;;3.23;1.40;;;12.10;99.90;;;;;;5074263;28;20187;-75
2023/04/07 09:31:13;;;;;;;3.70;1.67;;;12.10;99.90;;;;;;5075570;28;20160;-75
2023/04/07 09:33:52;;;;;;;5.67;1.77;;;12.30;99.90;;;;;;5071764;28;20750;-75
2023/04/07 09:36:18;;;;;;;3.73;1.17;;;12.50;99.90;;;;;;5060684;28;20663;-74
2023/04/07 09:38:47;;;;;;;2.40;1.10;;;12.50;99.90;;;;;;5076296;28;20184;-75
2023/04/07 09:41:15;;;;;;;3.13;1.20;;;12.30;99.90;;;;;;5074591;28;20198;-75
2023/04/07 09:43:44;;;;;;;4.73;1.40;;;12.40;99.90;;;;;;5075985;28;20156;-76
2023/04/07 09:46:17;;;;;;;4.87;1.50;;;12.50;99.90;;;;;;5072836;28;20215;-76
2023/04/07 09:49:06;;;;;;;5.17;2.07;;;12.70;99.90;;;;;;5076130;28;20152;-75
2023/04/07 09:51:32;;;;;;;2.90;1.60;;;12.80;99.90;;;;;;5074748;28;20250;-73
2023/04/07 09:53:59;;;;;;;5.67;1.37;;;12.80;99.90;;;;;;5074875;28;20226;-75
2023/04/07 09:56:25;;;;;;;2.53;1.23;;;12.80;99.90;;;;;;5073910;28;20167;-76
2023/04/07 09:58:52;;;;;;;5.97;1.47;;;12.90;99.90;;;;;;5074117;28;20173;-75
2023/04/07 10:01:20;;;;;;;3.23;1.67;;;13.20;99.90;;;;;;5074384;28;20191;-74
2023/04/07 10:03:49;;;;;;;4.00;1.53;;;13.40;99.90;;;;;;5075499;28;20165;-76
2023/04/07 10:06:19;;;;;;;1.93;1.10;;;13.30;99.90;;;;;;5073932;28;20162;-76
2023/04/07 10:08:46;;;;;;;2.13;1.20;;;12.80;99.90;;;;;;5076184;28;20147;-75
2023/04/07 10:11:15;;;;;;;2.97;1.20;;;12.40;99.90;;;;;;5075450;28;20179;-76
2023/04/07 10:13:41;;;;;;;4.67;1.23;;;12.10;99.90;;;;;;5074002;28;20178;-75
2023/04/07 10:16:08;;;;;;;4.00;1.43;;;12.30;99.90;;;;;;5072934;28;20181;-74
2023/04/07 10:18:35;;;;;;;2.00;1.10;;;12.50;99.90;;;;;;5074331;28;20280;-74
2023/04/07 10:21:06;;;;;;;3.80;1.23;;;12.80;99.90;;;;;;5075003;28;20190;-74
2023/04/07 10:23:57;;;;;;;3.33;1.40;;;13.30;99.90;;;;;;5073693;28;20165;-75
2023/04/07 10:26:30;;;;;;;4.97;1.30;;;13.70;99.90;;;;;;5072719;28;20163;-75
2023/04/07 10:29:05;;;;;;;3.10;1.07;;;13.80;99.90;;;;;;5074428;28;20171;-76
2023/04/07 10:31:37;;;;;;;7.73;1.90;;;13.90;99.90;;;;;;5073494;28;20691;-75
2023/04/07 10:34:04;;;;;;;7.20;1.90;;;13.70;99.90;;;;;;5075770;28;20191;-75
2023/04/07 10:37:12;;;;;;;4.67;2.23;;;13.40;99.90;;;;;;5073395;28;20163;-73
2023/04/07 10:39:40;;;;;;;6.27;2.13;;;12.60;99.90;;;;;;5073180;28;20183;-74
2023/04/07 10:42:27;;;;;;;5.13;1.63;;;12.10;99.90;;;;;;5075368;28;20183;-76
2023/04/07 10:44:52;;;;;;;3.67;1.57;;;11.90;99.90;;;;;;5074338;28;20542;-76
2023/04/07 10:47:21;;;;;;;5.57;2.00;;;11.70;99.90;;;;;;5073073;28;20253;-75
2023/04/07 10:50:16;;;;;;;5.30;2.23;;;11.70;99.90;;;;;;5072882;28;20534;-76
2023/04/07 10:52:43;;;;;;;5.87;2.03;;;11.70;99.90;;;;;;5074313;28;20146;-74
2023/04/07 10:55:32;;;;;;;3.23;1.23;;;11.70;99.90;;;;;;5072794;28;20171;-75
2023/04/07 10:58:21;;;;;;;5.03;1.60;;;11.80;99.90;;;;;;5072105;28;20213;-74
2023/04/07 11:01:05;;;;;;;6.03;2.00;;;11.90;99.90;;;;;;5072816;28;20687;-75
2023/04/07 11:03:41;;;;;;;8.93;2.13;;;12.10;99.90;;;;;;5068220;28;20203;-76
2023/04/07 11:06:13;;;;;;;6.10;1.90;;;12.30;99.90;;;;;;5069804;28;20175;-76
2023/04/07 11:08:47;;;;;;;10.13;2.73;;;12.60;99.90;;;;;;5072267;28;20227;-76
2023/04/07 11:11:14;;;;;;;5.60;1.77;;;12.90;99.90;;;;;;5072756;28;20179;-76
2023/04/07 11:13:45;;;;;;;7.07;2.00;;;13.30;99.90;;;;;;5074291;28;20197;-75
2023/04/07 11:16:15;;;;;;;9.97;1.60;;;13.60;99.90;;;;;;5071077;28;20224;-76
2023/04/07 11:18:43;;;;;;;5.13;1.60;;;13.70;99.90;;;;;;5072406;28;20198;-75
2023/04/07 11:21:09;;;;;;;7.33;2.53;;;13.80;99.90;;;;;;5073912;28;20674;-75
2023/04/07 11:23:41;;;;;;;5.53;1.83;;;13.70;99.90;;;;;;5071945;28;20163;-75
2023/04/07 11:26:11;;;;;;;7.33;1.60;;;13.60;99.90;;;;;;5071908;28;21013;-75
2023/04/07 11:28:57;;;;;;;4.23;1.40;;;13.20;99.90;;;;;;5072221;28;20174;-75
2023/04/07 11:31:31;;;;;;;3.17;1.90;;;12.70;99.90;;;;;;5071718;28;20178;-75
2023/04/07 11:34:03;;;;;;;7.37;1.93;;;12.40;99.90;;;;;;5072256;28;20163;-75
2023/04/07 11:36:37;;;;;;;5.33;1.47;;;12.40;99.90;;;;;;5070298;28;20174;-74
2023/04/07 11:39:04;;;;;;;6.20;1.90;;;12.30;99.90;;;;;;5071610;28;20653;-76
2023/04/07 11:41:32;;;;;;;6.17;1.43;;;12.40;99.90;;;;;;5071435;28;20247;-76
2023/04/07 11:44:11;;;;;;;5.03;1.27;;;12.60;99.90;;;;;;5073206;28;20204;-77
2023/04/07 11:46:58;;;;;;;4.93;1.80;;;12.80;99.90;;;;;;5071304;28;20181;-76
2023/04/07 11:49:27;;;;;;;4.00;1.40;;;13.10;99.90;;;;;;5071798;28;20691;-75
2023/04/07 11:52:07;;;;;;;5.37;2.10;;;13.40;99.90;;;;;;5071173;28;20178;-75
2023/04/07 11:54:50;;;;;;;9.70;2.27;;;13.60;99.90;;;;;;5073005;28;20159;-74
2023/04/07 11:57:26;;;;;;;5.63;2.00;;;13.70;99.90;;;;;;5071395;28;20176;-74
2023/04/07 12:00:10;;;;;;;4.70;2.00;;;14.00;99.90;;;;;;5072750;28;20174;-76
2023/04/07 12:02:36;;;;;;;5.67;2.30;;;14.10;99.90;;;;;;5071504;28;20198;-75
2023/04/07 12:05:03;;;;;;;5.47;2.10;;;14.10;99.90;;;;;;5071901;28;20240;-75
2023/04/07 12:07:28;;;;;;;5.23;1.73;;;13.90;99.90;;;;;;5069689;28;20178;-75
2023/04/07 12:09:54;;;;;;;7.70;1.80;;;13.50;99.90;;;;;;5072561;28;20181;-75
2023/04/07 12:12:28;;;;;;;5.43;1.80;;;12.80;99.90;;;;;;5072084;28;20189;-74
2023/04/07 12:14:54;;;;;;;7.63;2.33;;;12.30;99.90;;;;;;5071523;28;20261;-75
2023/04/07 12:17:25;;;;;;;3.40;2.23;;;11.80;99.90;;;;;;5069703;28;20205;-75
2023/04/07 12:19:52;;;;;;;3.83;2.10;;;11.60;99.90;;;;;;5072918;28;20176;-75
2023/04/07 12:22:19;;;;;;;9.17;2.80;;;11.60;99.90;;;;;;5072430;28;20193;-76
2023/04/07 12:24:45;;;;;;;5.77;2.37;;;11.80;99.90;;;;;;5072712;28;20180;-77
2023/04/07 12:27:12;;;;;;;5.80;2.50;;;11.80;99.90;;;;;;5071057;28;20159;-75
2023/04/07 12:29:39;;;;;;;9.33;2.77;;;12.00;99.90;;;;;;5071413;28;20187;-76
2023/04/07 12:32:05;;;;;;;9.40;3.03;;;12.20;99.90;;;;;;5071423;28;20225;-75
2023/04/07 12:34:30;;;;;;;6.53;2.67;;;12.30;99.90;;;;;;5071089;28;20170;-75
2023/04/07 12:36:56;;;;;;;7.13;2.50;;;12.50;99.90;;;;;;5069408;28;20191;-76
2023/04/07 12:39:23;;;;;;;6.03;2.80;;;12.80;99.90;;;;;;5071075;28;20168;-75
2023/04/07 12:41:51;;;;;;;8.30;3.00;;;13.00;99.90;;;;;;5071332;28;20201;-76
2023/04/07 12:44:18;;;;;;;6.83;2.13;;;13.00;99.90;;;;;;5075583;28;20654;-75
2023/04/07 12:46:45;;;;;;;5.63;2.73;;;13.30;99.90;;;;;;5076474;28;20166;-75
2023/04/07 12:49:10;;;;;;;10.00;2.60;;;13.30;99.90;;;;;;5074990;28;20545;-74